createdAt,value
2023-07-06T00:01:02.717Z,5.85
2023-07-06T00:03:33.165Z,6.28
2023-07-06T00:06:00.652Z,5.80
2023-07-06T00:08:28.810Z,6.50
2023-07-06T00:10:55.945Z,6.03
2023-07-06T00:13:23.554Z,5.97
2023-07-06T00:15:50.895Z,6.28
2023-07-06T00:18:18.671Z,6.00
2023-07-06T00:20:45.224Z,6.20
2023-07-06T00:23:12.407Z,6.30
2023-07-06T00:25:42.653Z,6.30
2023-07-06T00:28:10.826Z,6.40
2023-07-06T00:30:46.130Z,6.57
2023-07-06T00:33:21.056Z,6.32
2023-07-06T00:35:48.874Z,6.10
2023-07-06T00:38:17.515Z,6.72
2023-07-06T00:40:47.073Z,6.28
2023-07-06T00:43:18.651Z,6.32
2023-07-06T00:45:46.792Z,6.57
2023-07-06T00:48:27.620Z,6.65
2023-07-06T00:51:01.240Z,7.35
2023-07-06T00:53:30.860Z,7.43
2023-07-06T00:55:59.406Z,7.03
2023-07-06T00:58:30.538Z,7.05
2023-07-06T01:01:00.926Z,7.10
2023-07-06T01:03:27.659Z,7.60
2023-07-06T01:06:00.037Z,7.22
2023-07-06T01:08:26.779Z,7.40
2023-07-06T01:10:55.143Z,7.55
2023-07-06T01:13:27.949Z,6.45
2023-07-06T01:16:14.338Z,7.32
2023-07-06T01:18:58.881Z,7.55
2023-07-06T01:21:32.383Z,7.05
2023-07-06T01:24:30.971Z,6.15
2023-07-06T01:27:21.919Z,6.60
2023-07-06T01:30:07.385Z,7.40
2023-07-06T01:32:38.356Z,6.80
2023-07-06T01:35:26.938Z,7.43
2023-07-06T01:37:53.605Z,6.93
2023-07-06T01:40:20.226Z,6.82
2023-07-06T01:42:46.798Z,7.13
2023-07-06T01:45:22.428Z,7.50
2023-07-06T01:47:58.906Z,7.32
2023-07-06T01:51:12.290Z,8.05
2023-07-06T01:53:56.669Z,6.75
2023-07-06T01:56:44.954Z,7.13
2023-07-06T02:01:43.947Z,6.55
2023-07-06T02:04:11.631Z,6.75
2023-07-06T02:06:38.551Z,7.35
2023-07-06T02:09:06.322Z,7.38
2023-07-06T02:11:34.259Z,6.38
2023-07-06T02:14:00.824Z,7.30
2023-07-06T02:16:27.450Z,7.45
2023-07-06T02:18:56.539Z,6.75
2023-07-06T02:21:23.289Z,6.40
2023-07-06T02:23:49.872Z,6.55
2023-07-06T02:26:16.731Z,6.10
2023-07-06T02:28:43.362Z,6.95
2023-07-06T02:31:10.531Z,6.53
2023-07-06T02:33:37.134Z,7.75
2023-07-06T02:36:04.255Z,6.88
2023-07-06T02:38:31.028Z,7.05
2023-07-06T02:41:00.482Z,6.03
2023-07-06T02:43:27.357Z,6.35
2023-07-06T02:45:54.051Z,6.05
2023-07-06T02:48:20.782Z,6.60
2023-07-06T02:50:51.164Z,6.15
2023-07-06T02:53:18.363Z,6.60
2023-07-06T02:55:49.249Z,6.43
2023-07-06T02:58:16.425Z,5.82
2023-07-06T03:00:43.041Z,5.60
2023-07-06T03:03:10.344Z,6.10
2023-07-06T03:05:37.462Z,6.60
2023-07-06T03:08:07.017Z,6.32
2023-07-06T03:10:33.678Z,5.45
2023-07-06T03:13:01.079Z,6.20
2023-07-06T03:15:30.048Z,6.65
2023-07-06T03:17:56.969Z,6.13
2023-07-06T03:20:24.204Z,6.38
2023-07-06T03:22:53.250Z,6.43
2023-07-06T03:25:25.619Z,6.20
2023-07-06T03:27:52.680Z,6.43
2023-07-06T03:30:22.479Z,5.97
2023-07-06T03:35:16.185Z,5.88
2023-07-06T03:37:43.829Z,5.97
2023-07-06T03:40:15.440Z,6.10
2023-07-06T03:42:44.223Z,6.20
2023-07-06T03:45:15.052Z,6.20
2023-07-06T03:47:47.273Z,6.25
2023-07-06T03:50:15.959Z,6.10
2023-07-06T03:52:43.289Z,6.68
2023-07-06T03:55:19.374Z,6.32
2023-07-06T04:00:32.094Z,6.18
2023-07-06T04:03:02.128Z,6.35
2023-07-06T04:05:33.970Z,6.15
2023-07-06T04:08:05.653Z,6.80
2023-07-06T04:10:33.092Z,6.32
2023-07-06T04:12:59.610Z,6.40
2023-07-06T04:15:26.980Z,6.35
2023-07-06T04:17:53.898Z,5.85
2023-07-06T04:20:29.208Z,6.82
2023-07-06T04:22:58.295Z,6.13
2023-07-06T04:25:32.612Z,6.65
2023-07-06T04:28:04.042Z,6.07
2023-07-06T04:30:34.805Z,6.63
2023-07-06T04:33:02.256Z,6.45
2023-07-06T04:35:29.066Z,6.95
2023-07-06T04:37:55.660Z,6.70
2023-07-06T04:40:22.589Z,6.63
2023-07-06T04:42:52.372Z,6.18
2023-07-06T04:47:46.670Z,6.28
2023-07-06T04:50:18.805Z,6.05
2023-07-06T04:52:47.025Z,6.82
2023-07-06T04:55:13.775Z,6.13
2023-07-06T04:57:40.644Z,5.95
2023-07-06T05:00:18.922Z,6.55
2023-07-06T05:02:47.409Z,7.10
2023-07-06T05:05:14.637Z,6.50
2023-07-06T05:07:42.825Z,6.18
2023-07-06T05:10:09.936Z,6.53
2023-07-06T05:12:36.849Z,6.35
2023-07-06T05:15:04.339Z,6.68
2023-07-06T05:17:30.908Z,6.65
2023-07-06T05:19:57.669Z,6.40
2023-07-06T05:22:25.267Z,6.40
2023-07-06T05:24:52.534Z,7.13
2023-07-06T05:27:20.392Z,7.13
2023-07-06T05:29:46.905Z,5.70
2023-07-06T05:32:13.511Z,7.88
2023-07-06T05:34:40.350Z,7.53
2023-07-06T05:37:06.973Z,6.95
2023-07-06T05:39:33.614Z,7.25
2023-07-06T05:42:00.097Z,6.47
2023-07-06T05:44:26.641Z,6.80
2023-07-06T05:46:53.361Z,7.22
2023-07-06T05:49:19.962Z,6.45
2023-07-06T05:51:46.605Z,6.57
2023-07-06T05:54:13.094Z,6.72
2023-07-06T05:56:39.570Z,7.75
2023-07-06T05:59:06.124Z,7.40
2023-07-06T06:01:33.470Z,6.95
2023-07-06T06:04:02.911Z,6.90
2023-07-06T06:06:29.547Z,7.20
2023-07-06T06:08:56.712Z,8.63
2023-07-06T06:11:23.587Z,6.65
2023-07-06T06:13:50.453Z,7.28
2023-07-06T06:16:17.256Z,6.88
2023-07-06T06:18:45.353Z,7.15
2023-07-06T06:21:12.054Z,7.20
2023-07-06T06:23:38.599Z,7.75
2023-07-06T06:26:05.310Z,8.05
2023-07-06T06:28:31.965Z,8.45
2023-07-06T06:30:58.581Z,7.90
2023-07-06T06:33:25.097Z,6.78
2023-07-06T06:35:51.943Z,7.78
2023-07-06T06:38:18.808Z,8.20
2023-07-06T06:40:45.847Z,7.47
2023-07-06T06:43:12.437Z,7.90
2023-07-06T06:45:40.560Z,8.55
2023-07-06T06:48:07.436Z,9.60
2023-07-06T06:50:34.151Z,9.35
2023-07-06T06:53:00.887Z,9.68
2023-07-06T06:55:28.153Z,9.88
2023-07-06T06:57:54.698Z,9.70
2023-07-06T07:00:21.421Z,11.07
2023-07-06T07:02:48.185Z,10.50
2023-07-06T07:05:16.651Z,11.60
2023-07-06T07:07:43.609Z,10.20
2023-07-06T07:10:10.984Z,10.25
2023-07-06T07:12:42.055Z,10.82
2023-07-06T07:15:11.135Z,11.43
2023-07-06T07:17:38.734Z,11.63
2023-07-06T07:20:06.978Z,13.30
2023-07-06T07:22:34.081Z,12.10
2023-07-06T07:25:00.715Z,12.52
2023-07-06T07:27:29.535Z,11.85
2023-07-06T07:29:57.792Z,12.35
2023-07-06T07:32:24.296Z,11.48
2023-07-06T07:34:53.857Z,12.02
2023-07-06T07:37:22.109Z,11.68
2023-07-06T07:39:49.946Z,12.25
2023-07-06T07:42:17.574Z,12.95
2023-07-06T07:44:47.985Z,12.35
2023-07-06T07:47:20.217Z,11.43
2023-07-06T07:49:47.823Z,10.63
2023-07-06T07:52:14.729Z,11.90
2023-07-06T07:54:41.668Z,9.63
2023-07-06T07:57:08.330Z,8.45
2023-07-06T07:59:34.921Z,10.10
2023-07-06T08:02:01.826Z,8.27
2023-07-06T08:04:28.481Z,8.30
2023-07-06T08:06:56.245Z,8.52
2023-07-06T08:09:22.779Z,8.95
2023-07-06T08:11:49.411Z,9.10
2023-07-06T08:14:33.692Z,8.38
2023-07-06T08:17:00.160Z,7.25
2023-07-06T08:19:29.987Z,8.20
2023-07-06T08:22:14.164Z,7.03
2023-07-06T08:24:40.756Z,6.50
2023-07-06T08:27:07.366Z,7.20
2023-07-06T08:29:34.040Z,7.40
2023-07-06T08:32:00.775Z,7.22
2023-07-06T08:34:29.913Z,7.07
2023-07-06T08:36:57.025Z,6.40
2023-07-06T08:39:23.671Z,6.40
2023-07-06T08:41:50.825Z,6.75
2023-07-06T08:44:20.424Z,6.43
2023-07-06T08:46:49.727Z,6.70
2023-07-06T08:49:44.738Z,7.00
2023-07-06T08:52:13.966Z,6.65
2023-07-06T08:54:41.253Z,6.47
2023-07-06T08:57:16.995Z,6.47
2023-07-06T08:59:45.428Z,5.45
2023-07-06T09:02:26.640Z,6.03
2023-07-06T09:04:55.065Z,6.40
2023-07-06T09:07:31.894Z,5.90
2023-07-06T09:10:14.151Z,6.43
2023-07-06T09:12:46.473Z,5.85
2023-07-06T09:15:17.609Z,6.07
2023-07-06T09:17:49.077Z,6.07
2023-07-06T09:20:18.095Z,6.13
2023-07-06T09:22:46.169Z,4.60
2023-07-06T09:25:16.380Z,4.57
2023-07-06T09:27:49.052Z,4.30
2023-07-06T09:30:31.463Z,3.85
2023-07-06T09:33:06.966Z,4.85
2023-07-06T09:35:37.087Z,4.60
2023-07-06T09:38:04.251Z,3.95
2023-07-06T09:43:22.736Z,4.05
2023-07-06T09:45:50.859Z,3.10
2023-07-06T09:48:33.518Z,3.20
2023-07-06T09:51:14.476Z,3.08
2023-07-06T09:53:49.989Z,2.85
2023-07-06T09:56:16.858Z,3.42
2023-07-06T09:58:46.873Z,3.90
2023-07-06T10:01:29.834Z,4.38
2023-07-06T10:04:25.501Z,3.50
2023-07-06T10:07:11.809Z,3.97
2023-07-06T10:09:55.800Z,4.22
2023-07-06T10:12:35.271Z,4.78
2023-07-06T10:15:18.554Z,4.57
2023-07-06T10:17:52.284Z,4.82
2023-07-06T10:20:27.294Z,4.57
2023-07-06T10:23:17.935Z,3.97
2023-07-06T10:26:15.298Z,3.38
2023-07-06T10:28:52.533Z,3.72
2023-07-06T10:31:22.393Z,3.85
2023-07-06T10:33:53.521Z,4.35
2023-07-06T10:36:20.316Z,4.40
2023-07-06T10:38:49.503Z,4.60
2023-07-06T10:41:16.004Z,4.93
2023-07-06T10:43:44.376Z,4.97
2023-07-06T10:46:32.575Z,4.85
2023-07-06T10:49:15.712Z,4.32
2023-07-06T10:51:57.286Z,4.45
2023-07-06T10:54:26.089Z,5.63
2023-07-06T10:57:04.881Z,5.18
2023-07-06T10:59:38.763Z,5.00
2023-07-06T11:02:24.619Z,5.00
2023-07-06T11:05:20.557Z,5.03
2023-07-06T11:07:48.083Z,5.10
2023-07-06T11:10:14.658Z,4.47
2023-07-06T11:13:17.583Z,4.88
2023-07-06T11:15:44.725Z,4.80
2023-07-06T11:18:36.527Z,4.30
2023-07-06T11:21:24.545Z,4.57
2023-07-06T11:23:55.154Z,4.00
2023-07-06T11:29:09.634Z,3.30
2023-07-06T11:31:44.647Z,3.53
2023-07-06T11:34:42.291Z,3.20
2023-07-06T11:37:24.221Z,2.97
2023-07-06T11:40:02.103Z,2.80
2023-07-06T11:42:35.024Z,2.80
2023-07-06T11:45:09.243Z,2.90
2023-07-06T11:47:39.402Z,2.53
2023-07-06T11:50:10.925Z,2.80
2023-07-06T11:52:40.879Z,2.60
2023-07-06T11:55:35.093Z,2.72
2023-07-06T12:00:53.504Z,2.40
2023-07-06T12:03:27.315Z,2.13
2023-07-06T12:06:00.154Z,2.38
2023-07-06T12:08:31.205Z,2.55
2023-07-06T12:11:05.044Z,2.50
2023-07-06T12:13:35.306Z,2.10
2023-07-06T12:16:15.427Z,2.20
2023-07-06T12:18:43.741Z,1.90
2023-07-06T12:21:41.204Z,2.03
2023-07-06T12:24:16.608Z,2.10
2023-07-06T12:26:47.390Z,2.10
2023-07-06T12:29:16.416Z,2.10
2023-07-06T12:31:46.903Z,1.88
2023-07-06T12:34:19.192Z,2.00
2023-07-06T12:36:50.984Z,2.10
2023-07-06T12:39:20.765Z,1.50
2023-07-06T12:41:48.302Z,2.22
2023-07-06T12:44:18.935Z,1.90
2023-07-06T12:46:59.452Z,1.80
2023-07-06T12:49:26.026Z,2.20
2023-07-06T12:51:57.327Z,1.98
2023-07-06T12:54:29.151Z,1.80
2023-07-06T12:57:19.270Z,2.35
2023-07-06T12:59:51.553Z,2.13
2023-07-06T13:02:21.268Z,2.00
2023-07-06T13:04:49.300Z,2.20
2023-07-06T13:07:18.306Z,1.95
2023-07-06T13:09:45.053Z,2.00
2023-07-06T13:12:19.622Z,2.00
2023-07-06T13:14:47.918Z,2.00
2023-07-06T13:17:16.956Z,1.85
2023-07-06T13:22:12.399Z,2.30
2023-07-06T13:24:41.134Z,1.90
2023-07-06T13:27:12.957Z,1.88
2023-07-06T13:29:39.825Z,1.90
2023-07-06T13:32:06.528Z,2.10
2023-07-06T13:34:33.339Z,2.22
2023-07-06T13:36:59.954Z,1.92
2023-07-06T13:39:26.953Z,2.20
2023-07-06T13:41:53.440Z,1.92
2023-07-06T13:44:20.546Z,2.08
2023-07-06T13:46:48.424Z,2.20
2023-07-06T13:49:15.966Z,2.20
2023-07-06T13:51:43.110Z,2.33
2023-07-06T13:54:12.127Z,1.88
2023-07-06T14:01:33.261Z,2.15
2023-07-06T14:04:00.290Z,2.25
2023-07-06T14:06:26.938Z,2.20
2023-07-06T14:08:53.498Z,2.28
2023-07-06T14:11:20.336Z,2.35
2023-07-06T14:13:48.591Z,2.67
2023-07-06T14:16:16.822Z,2.15
2023-07-06T14:18:44.323Z,2.33
2023-07-06T14:21:12.897Z,2.30
2023-07-06T14:23:39.932Z,2.17
2023-07-06T14:26:06.585Z,2.13
2023-07-06T14:28:33.345Z,2.30
2023-07-06T14:31:04.180Z,2.47
2023-07-06T14:33:30.990Z,1.73
2023-07-06T14:35:57.888Z,2.50
2023-07-06T14:38:25.308Z,2.30
2023-07-06T14:40:51.901Z,2.40
2023-07-06T14:43:18.627Z,2.30
2023-07-06T14:45:46.896Z,2.50
2023-07-06T14:48:14.046Z,2.30
2023-07-06T14:50:40.630Z,2.40
2023-07-06T14:53:10.290Z,1.90
2023-07-06T14:55:36.862Z,2.22
2023-07-06T14:58:03.990Z,2.47
2023-07-06T15:00:31.285Z,2.50
2023-07-06T15:02:58.135Z,2.25
2023-07-06T15:05:25.090Z,2.42
2023-07-06T15:07:51.695Z,2.40
2023-07-06T15:10:18.614Z,2.10
2023-07-06T15:12:45.376Z,2.30
2023-07-06T15:15:12.389Z,2.20
2023-07-06T15:17:39.357Z,1.98
2023-07-06T15:20:08.913Z,2.42
2023-07-06T15:22:36.071Z,2.38
2023-07-06T15:25:03.876Z,2.40
2023-07-06T15:27:30.671Z,2.15
2023-07-06T15:29:57.762Z,2.65
2023-07-06T15:32:25.580Z,2.40
2023-07-06T15:35:00.603Z,2.10
2023-07-06T15:37:28.819Z,2.50
2023-07-06T15:39:58.348Z,2.35
2023-07-06T15:42:25.557Z,2.53
2023-07-06T15:44:52.112Z,2.42
2023-07-06T15:47:18.682Z,2.25
2023-07-06T15:49:45.606Z,2.58
2023-07-06T15:52:12.491Z,2.30
2023-07-06T15:54:39.109Z,2.50
2023-07-06T15:57:06.016Z,2.30
2023-07-06T15:59:32.538Z,2.42
2023-07-06T16:02:00.051Z,2.30
2023-07-06T16:04:26.700Z,2.20
2023-07-06T16:06:53.307Z,2.60
2023-07-06T16:09:20.048Z,2.20
2023-07-06T16:11:47.809Z,2.15
2023-07-06T16:14:18.232Z,2.65
2023-07-06T16:16:45.996Z,2.30
2023-07-06T16:19:13.990Z,2.47
2023-07-06T16:21:41.108Z,2.50
2023-07-06T16:24:08.798Z,2.92
2023-07-06T16:26:35.296Z,2.35
2023-07-06T16:29:02.088Z,2.50
2023-07-06T16:31:30.882Z,2.45
2023-07-06T16:33:59.339Z,2.38
2023-07-06T16:36:25.914Z,2.40
2023-07-06T16:38:52.969Z,2.53
2023-07-06T16:41:19.554Z,2.40
2023-07-06T16:43:46.063Z,1.83
2023-07-06T16:46:13.529Z,2.65
2023-07-06T16:48:40.055Z,2.40
2023-07-06T16:51:06.858Z,2.50
2023-07-06T16:53:34.732Z,2.40
2023-07-06T16:56:01.775Z,2.28
2023-07-06T16:58:29.868Z,2.40
2023-07-06T17:01:03.400Z,2.60
2023-07-06T17:03:30.618Z,2.55
2023-07-06T17:05:58.428Z,2.60
2023-07-06T17:08:26.444Z,2.28
2023-07-06T17:10:53.094Z,2.33
2023-07-06T17:13:19.790Z,2.33
2023-07-06T17:15:49.961Z,2.50
2023-07-06T17:18:17.127Z,2.40
2023-07-06T17:20:43.712Z,2.60
2023-07-06T17:23:10.341Z,2.20
2023-07-06T17:25:37.005Z,2.30
2023-07-06T17:28:03.741Z,2.65
2023-07-06T17:30:30.228Z,2.95
2023-07-06T17:32:56.904Z,2.30
2023-07-06T17:35:23.574Z,2.30
2023-07-06T17:37:50.145Z,2.40
2023-07-06T17:40:16.838Z,2.45
2023-07-06T17:42:43.368Z,2.22
2023-07-06T17:45:10.219Z,2.42
2023-07-06T17:47:36.948Z,2.30
2023-07-06T17:50:03.670Z,2.33
2023-07-06T17:52:30.656Z,2.53
2023-07-06T17:54:57.143Z,2.25
2023-07-06T17:57:23.607Z,2.20
2023-07-06T17:59:50.142Z,2.30
2023-07-06T18:02:18.742Z,2.67
2023-07-06T18:04:46.000Z,2.50
2023-07-06T18:07:12.621Z,2.50
2023-07-06T18:09:39.219Z,2.90
2023-07-06T18:12:06.206Z,2.53
2023-07-06T18:14:33.216Z,3.17
2023-07-06T18:17:01.334Z,2.75
2023-07-06T18:19:29.934Z,2.25
2023-07-06T18:21:58.191Z,2.55
2023-07-06T18:24:25.052Z,2.40
2023-07-06T18:26:54.928Z,2.50
2023-07-06T18:29:22.012Z,2.30
2023-07-06T18:31:49.782Z,2.40
2023-07-06T18:34:17.074Z,2.40
2023-07-06T18:36:43.540Z,2.58
2023-07-06T18:39:10.116Z,2.10
2023-07-06T18:41:36.653Z,2.20
2023-07-06T18:44:03.360Z,2.45
2023-07-06T18:46:29.974Z,2.50
2023-07-06T18:48:56.501Z,2.40
2023-07-06T18:51:22.961Z,2.13
2023-07-06T18:53:49.678Z,2.00
2023-07-06T18:56:16.720Z,2.15
2023-07-06T18:58:43.625Z,2.40
2023-07-06T19:01:12.256Z,3.35
2023-07-06T19:03:39.452Z,2.45
2023-07-06T19:06:16.290Z,2.45
2023-07-06T19:08:44.011Z,2.30
2023-07-06T19:11:13.271Z,2.33
2023-07-06T19:13:39.887Z,2.67
2023-07-06T19:16:06.395Z,2.40
2023-07-06T19:18:33.033Z,2.50
2023-07-06T19:20:59.582Z,2.50
2023-07-06T19:23:26.893Z,2.50
2023-07-06T19:25:53.360Z,2.35
2023-07-06T19:28:20.501Z,2.47
2023-07-06T19:30:47.433Z,2.40
2023-07-06T19:33:14.054Z,2.78
2023-07-06T19:35:40.541Z,2.70
2023-07-06T19:38:07.346Z,2.38
2023-07-06T19:40:34.086Z,2.40
2023-07-06T19:43:00.676Z,2.75
2023-07-06T19:45:27.326Z,2.40
2023-07-06T19:47:55.302Z,2.00
2023-07-06T19:50:22.608Z,2.88
2023-07-06T19:52:49.227Z,2.50
2023-07-06T19:55:15.815Z,3.15
2023-07-06T19:57:44.815Z,4.30
2023-07-06T20:02:38.606Z,3.22
2023-07-06T20:05:05.717Z,3.25
2023-07-06T20:07:32.166Z,4.10
2023-07-06T20:09:58.798Z,3.13
2023-07-06T20:12:25.283Z,3.00
2023-07-06T20:14:51.774Z,3.35
2023-07-06T20:17:18.275Z,3.13
2023-07-06T20:19:44.920Z,3.28
2023-07-06T20:22:12.409Z,3.80
2023-07-06T20:24:38.972Z,3.30
2023-07-06T20:27:05.734Z,2.65
2023-07-06T20:29:33.775Z,2.83
2023-07-06T20:32:02.172Z,2.50
2023-07-06T20:34:29.758Z,2.88
2023-07-06T20:36:56.320Z,3.30
2023-07-06T20:39:22.831Z,3.15
2023-07-06T20:41:49.417Z,2.53
2023-07-06T20:44:15.948Z,2.60
2023-07-06T20:46:42.527Z,2.78
2023-07-06T20:49:09.096Z,2.92
2023-07-06T20:51:35.585Z,2.70
2023-07-06T20:54:02.030Z,3.20
2023-07-06T20:56:28.489Z,2.88
2023-07-06T20:58:55.507Z,3.20
2023-07-06T21:01:22.086Z,2.65
2023-07-06T21:03:48.663Z,3.05
2023-07-06T21:06:15.559Z,3.40
2023-07-06T21:08:42.033Z,3.00
2023-07-06T21:11:08.535Z,3.22
2023-07-06T21:13:35.075Z,3.70
2023-07-06T21:16:06.249Z,3.83
2023-07-06T21:18:33.583Z,3.67
2023-07-06T21:21:00.922Z,3.47
2023-07-06T21:23:29.195Z,3.72
2023-07-06T21:25:55.898Z,4.10
2023-07-06T21:28:22.381Z,3.67
2023-07-06T21:30:48.920Z,3.83
2023-07-06T21:33:15.697Z,4.15
2023-07-06T21:35:42.268Z,3.95
2023-07-06T21:38:09.054Z,3.70
2023-07-06T21:40:35.942Z,4.03
2023-07-06T21:43:02.891Z,3.85
2023-07-06T21:45:29.501Z,3.92
2023-07-06T21:47:56.030Z,3.47
2023-07-06T21:50:22.652Z,3.45
2023-07-06T21:52:49.106Z,3.95
2023-07-06T21:55:15.768Z,4.00
2023-07-06T21:57:42.258Z,4.15
2023-07-06T22:00:12.537Z,4.03
2023-07-06T22:02:39.556Z,4.05
2023-07-06T22:05:06.275Z,4.20
2023-07-06T22:07:32.794Z,3.90
2023-07-06T22:09:59.229Z,3.80
2023-07-06T22:12:25.827Z,3.75
2023-07-06T22:14:52.343Z,4.05
2023-07-06T22:17:19.054Z,3.40
2023-07-06T22:19:45.506Z,4.30
2023-07-06T22:22:11.993Z,4.10
2023-07-06T22:24:38.501Z,4.20
2023-07-06T22:27:05.421Z,3.70
2023-07-06T22:29:31.976Z,4.25
2023-07-06T22:31:58.535Z,3.30
2023-07-06T22:34:25.187Z,4.10
2023-07-06T22:36:51.718Z,3.90
2023-07-06T22:39:18.249Z,4.55
2023-07-06T22:41:44.806Z,4.28
2023-07-06T22:44:11.290Z,4.13
2023-07-06T22:46:37.898Z,3.83
2023-07-06T22:49:05.553Z,4.22
2023-07-06T22:51:32.129Z,4.78
2023-07-06T22:53:58.607Z,4.38
2023-07-06T22:56:25.191Z,4.80
2023-07-06T22:58:51.729Z,5.10
2023-07-06T23:01:20.719Z,4.80
2023-07-06T23:03:47.419Z,5.00
2023-07-06T23:06:14.413Z,4.45
2023-07-06T23:08:40.970Z,3.78
2023-07-06T23:11:08.357Z,4.50
2023-07-06T23:13:35.009Z,4.40
2023-07-06T23:16:01.637Z,4.97
2023-07-06T23:18:29.211Z,4.72
2023-07-06T23:20:57.652Z,4.65
2023-07-06T23:23:26.472Z,4.68
2023-07-06T23:25:53.091Z,5.55
2023-07-06T23:28:23.368Z,5.15
2023-07-06T23:30:51.758Z,5.53
2023-07-06T23:33:18.305Z,5.88
2023-07-06T23:35:46.750Z,6.40
2023-07-06T23:38:14.662Z,5.82
2023-07-06T23:40:45.162Z,5.57
2023-07-06T23:43:12.181Z,6.05
2023-07-06T23:45:38.814Z,5.95
2023-07-06T23:48:06.066Z,5.47
2023-07-06T23:50:32.808Z,5.50
2023-07-06T23:52:59.409Z,5.68
2023-07-06T23:55:25.940Z,5.30
2023-07-06T23:57:52.859Z,5.60
